createdAt,value
2024-04-18T00:01:05.719Z,4.80
2024-04-18T00:03:32.617Z,5.14
2024-04-18T00:05:59.313Z,4.91
2024-04-18T00:08:25.952Z,4.71
2024-04-18T00:10:55.871Z,4.81
2024-04-18T00:13:22.585Z,4.69
2024-04-18T00:15:49.283Z,4.70
2024-04-18T00:18:16.037Z,4.89
2024-04-18T00:20:45.560Z,4.78
2024-04-18T00:23:12.224Z,4.69
2024-04-18T00:25:38.782Z,4.73
2024-04-18T00:28:05.695Z,4.80
2024-04-18T00:30:32.462Z,4.58
2024-04-18T00:32:59.171Z,4.57
2024-04-18T00:35:25.814Z,4.80
2024-04-18T00:37:52.487Z,4.80
2024-04-18T00:40:19.289Z,4.69
2024-04-18T00:42:46.203Z,4.76
2024-04-18T00:45:12.846Z,4.80
2024-04-18T00:47:40.595Z,5.00
2024-04-18T00:50:11.191Z,4.72
2024-04-18T00:52:38.695Z,4.87
2024-04-18T00:55:08.939Z,4.77
2024-04-18T00:57:40.596Z,4.68
2024-04-18T01:00:08.331Z,4.66
2024-04-18T01:02:35.327Z,5.00
2024-04-18T01:05:03.543Z,5.00
2024-04-18T01:07:30.276Z,4.89
2024-04-18T01:09:57.043Z,5.09
2024-04-18T01:12:23.867Z,5.04
2024-04-18T01:14:50.447Z,4.95
2024-04-18T01:17:17.272Z,5.04
2024-04-18T01:19:44.104Z,4.92
2024-04-18T01:22:10.814Z,4.96
2024-04-18T01:24:37.521Z,4.93
2024-04-18T01:27:04.661Z,4.90
2024-04-18T01:29:31.268Z,5.01
2024-04-18T01:31:57.913Z,4.87
2024-04-18T01:34:24.704Z,5.07
2024-04-18T01:36:52.899Z,4.98
2024-04-18T01:39:20.350Z,4.76
2024-04-18T01:41:47.052Z,4.92
2024-04-18T01:44:13.820Z,4.88
2024-04-18T01:46:40.545Z,5.16
2024-04-18T01:49:07.227Z,4.88
2024-04-18T01:51:33.960Z,4.97
2024-04-18T01:54:00.689Z,4.89
2024-04-18T01:56:27.389Z,5.00
2024-04-18T01:58:54.029Z,5.35
2024-04-18T02:01:25.436Z,4.99
2024-04-18T02:03:52.183Z,5.24
2024-04-18T02:06:19.049Z,5.24
2024-04-18T02:08:45.783Z,5.12
2024-04-18T02:11:12.444Z,4.95
2024-04-18T02:13:39.278Z,4.98
2024-04-18T02:16:06.387Z,5.00
2024-04-18T02:18:33.146Z,5.09
2024-04-18T02:20:59.870Z,4.99
2024-04-18T02:23:27.527Z,5.05
2024-04-18T02:25:54.246Z,5.31
2024-04-18T02:28:21.221Z,5.07
2024-04-18T02:30:48.279Z,5.29
2024-04-18T02:33:17.771Z,4.98
2024-04-18T02:35:46.171Z,5.12
2024-04-18T02:38:12.790Z,5.29
2024-04-18T02:40:39.433Z,5.12
2024-04-18T02:43:06.033Z,5.04
2024-04-18T02:45:32.799Z,5.20
2024-04-18T02:47:59.535Z,4.96
2024-04-18T02:50:26.157Z,5.02
2024-04-18T02:52:52.890Z,5.34
2024-04-18T02:55:19.505Z,5.19
2024-04-18T02:57:46.296Z,5.12
2024-04-18T03:00:13.294Z,5.10
2024-04-18T03:02:40.003Z,5.37
2024-04-18T03:05:06.888Z,4.97
2024-04-18T03:07:33.578Z,5.19
2024-04-18T03:10:02.956Z,5.01
2024-04-18T03:12:30.390Z,5.02
2024-04-18T03:14:57.244Z,5.02
2024-04-18T03:17:23.879Z,5.07
2024-04-18T03:19:50.601Z,4.93
2024-04-18T03:22:17.659Z,4.95
2024-04-18T03:24:44.440Z,4.91
2024-04-18T03:27:11.175Z,4.84
2024-04-18T03:29:37.798Z,5.07
2024-04-18T03:32:05.335Z,4.92
2024-04-18T03:34:32.143Z,5.03
2024-04-18T03:36:58.972Z,4.84
2024-04-18T03:39:29.656Z,4.95
2024-04-18T03:41:56.286Z,4.91
2024-04-18T03:44:23.124Z,4.97
2024-04-18T03:46:49.894Z,4.97
2024-04-18T03:49:17.072Z,4.97
2024-04-18T03:51:43.791Z,5.05
2024-04-18T03:54:10.519Z,5.14
2024-04-18T03:56:37.224Z,5.14
2024-04-18T03:59:04.054Z,5.03
2024-04-18T04:01:31.003Z,4.93
2024-04-18T04:03:58.515Z,4.88
2024-04-18T04:06:25.489Z,5.00
2024-04-18T04:08:52.219Z,5.01
2024-04-18T04:11:19.596Z,5.10
2024-04-18T04:13:46.743Z,4.99
2024-04-18T04:16:13.699Z,5.04
2024-04-18T04:18:40.591Z,5.13
2024-04-18T04:21:08.901Z,5.16
2024-04-18T04:23:36.135Z,5.25
2024-04-18T04:26:03.109Z,5.07
2024-04-18T04:28:29.699Z,5.04
2024-04-18T04:30:56.403Z,5.13
2024-04-18T04:33:23.178Z,5.13
2024-04-18T04:35:49.829Z,5.10
2024-04-18T04:38:16.479Z,5.38
2024-04-18T04:40:43.189Z,5.26
2024-04-18T04:43:09.789Z,5.22
2024-04-18T04:45:36.438Z,5.06
2024-04-18T04:48:03.557Z,5.21
2024-04-18T04:50:30.352Z,5.04
2024-04-18T04:52:56.930Z,5.14
2024-04-18T04:55:23.623Z,5.19
2024-04-18T04:57:50.347Z,5.23
2024-04-18T05:00:17.259Z,5.10
2024-04-18T05:02:45.173Z,5.00
2024-04-18T05:05:13.280Z,5.26
2024-04-18T05:07:39.907Z,5.18
2024-04-18T05:10:07.540Z,5.14
2024-04-18T05:12:34.273Z,5.30
2024-04-18T05:15:01.287Z,5.38
2024-04-18T05:17:28.228Z,5.24
2024-04-18T05:19:54.854Z,5.35
2024-04-18T05:22:21.452Z,5.19
2024-04-18T05:24:48.159Z,5.37
2024-04-18T05:27:14.933Z,5.31
2024-04-18T05:30:00.430Z,5.50
2024-04-18T05:32:27.688Z,5.53
2024-04-18T05:34:54.476Z,5.54
2024-04-18T05:37:23.121Z,5.68
2024-04-18T05:39:50.479Z,6.05
2024-04-18T05:42:17.420Z,5.81
2024-04-18T05:44:44.692Z,5.86
2024-04-18T05:47:11.453Z,5.89
2024-04-18T05:49:38.136Z,6.17
2024-04-18T05:52:05.209Z,5.85
2024-04-18T05:54:33.114Z,6.04
2024-04-18T05:56:59.764Z,5.95
2024-04-18T05:59:26.408Z,6.15
2024-04-18T06:01:53.055Z,6.16
2024-04-18T06:04:19.849Z,6.26
2024-04-18T06:06:47.262Z,6.40
2024-04-18T06:09:14.023Z,6.40
2024-04-18T06:11:44.560Z,6.31
2024-04-18T06:14:11.397Z,6.56
2024-04-18T06:16:38.587Z,6.41
2024-04-18T06:19:05.333Z,6.63
2024-04-18T06:21:32.126Z,6.67
2024-04-18T06:23:58.900Z,6.79
2024-04-18T06:26:25.627Z,6.89
2024-04-18T06:28:52.561Z,7.00
2024-04-18T06:31:19.865Z,6.75
2024-04-18T06:33:47.309Z,7.00
2024-04-18T06:36:14.216Z,6.99
2024-04-18T06:38:40.901Z,7.32
2024-04-18T06:41:07.778Z,7.04
2024-04-18T06:43:34.943Z,7.18
2024-04-18T06:46:02.096Z,7.10
2024-04-18T06:48:30.339Z,6.82
2024-04-18T06:50:57.307Z,7.15
2024-04-18T06:53:24.031Z,7.38
2024-04-18T06:55:50.871Z,7.45
2024-04-18T06:58:17.870Z,7.59
2024-04-18T07:00:44.908Z,7.56
2024-04-18T07:03:13.924Z,7.84
2024-04-18T07:05:40.953Z,7.71
2024-04-18T07:08:07.825Z,7.89
2024-04-18T07:10:35.340Z,7.94
2024-04-18T07:13:02.266Z,7.78
2024-04-18T07:15:29.012Z,7.63
2024-04-18T07:17:58.042Z,7.56
2024-04-18T07:20:26.697Z,7.27
2024-04-18T07:22:54.891Z,7.09
2024-04-18T07:25:21.550Z,7.05
2024-04-18T07:27:49.642Z,7.06
2024-04-18T07:30:16.990Z,7.14
2024-04-18T07:32:44.526Z,7.14
2024-04-18T07:35:11.403Z,7.14
2024-04-18T07:37:38.123Z,7.14
2024-04-18T07:40:12.542Z,7.39
2024-04-18T07:42:39.985Z,7.60
2024-04-18T07:45:06.902Z,7.71
2024-04-18T07:47:34.069Z,7.50
2024-04-18T07:50:01.391Z,7.62
2024-04-18T07:52:28.164Z,8.16
2024-04-18T07:54:54.953Z,8.22
2024-04-18T07:57:22.186Z,8.15
2024-04-18T07:59:50.171Z,8.50
2024-04-18T08:02:19.249Z,9.09
2024-04-18T08:04:55.301Z,9.32
2024-04-18T08:07:29.091Z,8.91
2024-04-18T08:10:00.952Z,8.61
2024-04-18T08:12:34.741Z,8.94
2024-04-18T08:15:11.226Z,9.57
2024-04-18T08:17:41.557Z,9.50
2024-04-18T08:20:09.065Z,9.44
2024-04-18T08:22:35.786Z,9.53
2024-04-18T08:25:04.304Z,9.77
2024-04-18T08:27:33.369Z,9.54
2024-04-18T08:30:00.222Z,9.42
2024-04-18T08:32:26.909Z,9.69
2024-04-18T08:34:53.778Z,9.49
2024-04-18T08:37:21.300Z,9.13
2024-04-18T08:39:47.903Z,8.93
2024-04-18T08:42:23.708Z,9.06
2024-04-18T08:44:56.452Z,9.00
2024-04-18T08:47:28.087Z,9.48
2024-04-18T08:49:56.351Z,9.64
2024-04-18T08:52:23.390Z,9.50
2024-04-18T08:54:50.196Z,9.84
2024-04-18T08:57:22.943Z,9.78
2024-04-18T08:59:59.530Z,9.69
2024-04-18T09:02:27.567Z,9.60
2024-04-18T09:04:55.170Z,9.74
2024-04-18T09:07:22.202Z,9.60
2024-04-18T09:09:50.579Z,9.73
2024-04-18T09:12:17.545Z,10.14
2024-04-18T09:14:44.332Z,9.86
2024-04-18T09:17:15.391Z,9.75
2024-04-18T09:19:42.085Z,9.86
2024-04-18T09:22:08.767Z,9.80
2024-04-18T09:24:38.641Z,9.64
2024-04-18T09:27:05.516Z,9.56
2024-04-18T09:29:32.199Z,9.60
2024-04-18T09:32:01.673Z,10.03
2024-04-18T09:34:32.153Z,10.74
2024-04-18T09:37:06.248Z,10.61
2024-04-18T09:39:35.690Z,11.33
2024-04-18T09:42:31.921Z,11.28
2024-04-18T09:45:05.459Z,11.88
2024-04-18T09:47:34.065Z,12.47
2024-04-18T09:50:01.530Z,12.24
2024-04-18T09:52:30.297Z,12.42
2024-04-18T09:54:58.597Z,11.91
2024-04-18T09:57:28.600Z,12.59
2024-04-18T09:59:56.540Z,12.78
2024-04-18T10:02:24.806Z,13.30
2024-04-18T10:04:52.638Z,12.65
2024-04-18T10:07:25.061Z,12.91
2024-04-18T10:09:54.880Z,13.03
2024-04-18T10:12:23.120Z,12.73
2024-04-18T10:14:52.421Z,12.56
2024-04-18T10:17:32.408Z,12.68
2024-04-18T10:20:06.734Z,12.07
2024-04-18T10:22:45.573Z,11.81
2024-04-18T10:25:20.729Z,11.76
2024-04-18T10:27:47.578Z,12.47
2024-04-18T10:30:19.699Z,12.81
2024-04-18T10:32:49.968Z,12.19
2024-04-18T10:35:18.164Z,12.01
2024-04-18T10:37:51.918Z,11.94
2024-04-18T10:40:18.717Z,11.79
2024-04-18T10:42:45.372Z,11.67
2024-04-18T10:45:15.530Z,11.25
2024-04-18T10:47:45.007Z,11.37
2024-04-18T10:50:11.818Z,11.30
2024-04-18T10:52:38.460Z,10.96
2024-04-18T10:55:05.738Z,10.68
2024-04-18T10:57:32.713Z,10.65
2024-04-18T11:00:00.238Z,10.67
2024-04-18T11:02:29.198Z,11.10
2024-04-18T11:04:56.360Z,11.14
2024-04-18T11:07:23.027Z,12.29
2024-04-18T11:09:49.762Z,13.21
2024-04-18T11:12:17.342Z,13.44
2024-04-18T11:14:44.182Z,13.23
2024-04-18T11:17:11.197Z,13.46
2024-04-18T11:19:38.383Z,12.72
2024-04-18T11:22:05.543Z,12.25
2024-04-18T11:24:32.434Z,11.78
2024-04-18T11:27:02.769Z,11.54
2024-04-18T11:29:29.684Z,11.35
2024-04-18T11:32:12.023Z,11.44
2024-04-18T11:34:39.990Z,12.45
2024-04-18T11:37:08.841Z,13.18
2024-04-18T11:39:35.678Z,13.75
2024-04-18T11:42:02.574Z,14.70
2024-04-18T11:44:30.629Z,14.19
2024-04-18T11:46:57.642Z,13.14
2024-04-18T11:49:24.407Z,13.12
2024-04-18T11:51:51.178Z,12.73
2024-04-18T11:54:17.923Z,12.33
2024-04-18T11:56:44.786Z,12.62
2024-04-18T11:59:11.499Z,13.54
2024-04-18T12:01:38.128Z,13.11
2024-04-18T12:04:05.092Z,13.78
2024-04-18T12:06:32.204Z,13.55
2024-04-18T12:08:59.032Z,13.98
2024-04-18T12:11:25.866Z,14.37
2024-04-18T12:13:55.690Z,13.90
2024-04-18T12:16:23.712Z,13.91
2024-04-18T12:18:51.769Z,14.01
2024-04-18T12:21:18.425Z,14.62
2024-04-18T12:23:45.045Z,14.43
2024-04-18T12:26:13.572Z,14.06
2024-04-18T12:28:40.404Z,14.32
2024-04-18T12:31:07.135Z,14.73
2024-04-18T12:33:33.828Z,15.13
2024-04-18T12:36:00.796Z,14.82
2024-04-18T12:38:27.489Z,14.31
2024-04-18T12:40:54.102Z,14.06
2024-04-18T12:43:20.795Z,15.23
2024-04-18T12:45:47.952Z,15.02
2024-04-18T12:48:14.919Z,14.56
2024-04-18T12:50:41.906Z,14.30
2024-04-18T12:53:08.610Z,14.33
2024-04-18T12:55:36.878Z,13.89
2024-04-18T12:58:03.952Z,13.49
2024-04-18T13:00:30.876Z,12.91
2024-04-18T13:02:57.623Z,12.98
2024-04-18T13:05:24.815Z,12.90
2024-04-18T13:07:53.238Z,12.43
2024-04-18T13:10:20.535Z,12.51
2024-04-18T13:12:47.184Z,12.25
2024-04-18T13:15:14.614Z,12.30
2024-04-18T13:17:41.396Z,11.89
2024-04-18T13:20:08.539Z,11.77
2024-04-18T13:22:35.168Z,11.60
2024-04-18T13:25:01.822Z,10.98
2024-04-18T13:27:31.084Z,12.25
2024-04-18T13:29:58.892Z,12.72
2024-04-18T13:32:25.882Z,13.46
2024-04-18T13:34:54.431Z,14.11
2024-04-18T13:37:21.676Z,14.53
2024-04-18T13:39:52.198Z,13.05
2024-04-18T13:42:19.400Z,12.67
2024-04-18T13:44:46.253Z,12.21
2024-04-18T13:47:13.278Z,12.50
2024-04-18T13:49:40.041Z,12.57
2024-04-18T13:52:07.607Z,12.51
2024-04-18T13:54:35.936Z,12.62
2024-04-18T13:57:06.282Z,12.13
2024-04-18T13:59:33.471Z,12.38
2024-04-18T14:02:03.960Z,11.93
2024-04-18T14:04:31.441Z,12.06
2024-04-18T14:06:58.603Z,11.81
2024-04-18T14:09:34.961Z,12.02
2024-04-18T14:12:01.816Z,12.45
2024-04-18T14:14:29.792Z,12.74
2024-04-18T14:17:15.208Z,13.13
2024-04-18T14:19:41.872Z,13.12
2024-04-18T14:22:08.615Z,13.24
2024-04-18T14:24:36.690Z,13.16
2024-04-18T14:27:04.052Z,13.21
2024-04-18T14:29:31.079Z,13.05
2024-04-18T14:32:01.337Z,13.26
2024-04-18T14:34:28.917Z,13.36
2024-04-18T14:36:55.534Z,13.26
2024-04-18T14:39:22.161Z,12.99
2024-04-18T14:41:48.808Z,12.54
2024-04-18T14:44:15.437Z,12.95
2024-04-18T14:46:42.118Z,12.83
2024-04-18T14:49:12.148Z,12.85
2024-04-18T14:51:39.673Z,12.69
2024-04-18T14:54:07.337Z,12.65
2024-04-18T14:56:35.274Z,12.96
2024-04-18T14:59:02.509Z,13.12
2024-04-18T15:01:30.304Z,12.73
2024-04-18T15:03:57.204Z,12.69
2024-04-18T15:06:24.063Z,12.54
2024-04-18T15:08:50.770Z,13.07
2024-04-18T15:11:17.511Z,13.06
2024-04-18T15:13:44.131Z,12.86
2024-04-18T15:16:11.363Z,12.76
2024-04-18T15:18:38.828Z,12.68
2024-04-18T15:21:05.590Z,12.29
2024-04-18T15:23:32.890Z,12.06
2024-04-18T15:25:59.821Z,11.62
2024-04-18T15:28:26.989Z,11.93
2024-04-18T15:30:53.611Z,11.48
2024-04-18T15:33:20.903Z,11.35
2024-04-18T15:35:47.631Z,11.43
2024-04-18T15:38:14.901Z,11.89
2024-04-18T15:40:42.364Z,11.95
2024-04-18T15:43:09.035Z,11.86
2024-04-18T15:45:42.426Z,11.76
2024-04-18T15:48:09.276Z,12.10
2024-04-18T15:50:36.272Z,11.86
2024-04-18T15:53:02.865Z,12.08
2024-04-18T15:55:32.350Z,12.02
2024-04-18T15:57:59.334Z,11.73
2024-04-18T16:00:26.125Z,11.99
2024-04-18T16:02:55.396Z,11.95
2024-04-18T16:05:25.244Z,11.87
2024-04-18T16:07:52.248Z,11.76
2024-04-18T16:10:19.398Z,11.80
2024-04-18T16:12:46.919Z,11.63
2024-04-18T16:15:14.841Z,11.91
2024-04-18T16:17:44.835Z,11.55
2024-04-18T16:20:13.600Z,11.58
2024-04-18T16:22:40.664Z,11.50
2024-04-18T16:25:07.503Z,11.70
2024-04-18T16:27:35.180Z,11.35
2024-04-18T16:30:01.922Z,11.35
2024-04-18T16:32:29.029Z,11.25
2024-04-18T16:34:55.832Z,11.09
2024-04-18T16:37:24.783Z,10.93
2024-04-18T16:39:51.763Z,10.80
2024-04-18T16:42:18.501Z,10.99
2024-04-18T16:44:45.181Z,11.00
2024-04-18T16:47:11.855Z,10.85
2024-04-18T16:49:41.309Z,10.80
2024-04-18T16:52:10.520Z,10.71
2024-04-18T16:54:38.062Z,10.85
2024-04-18T16:57:05.142Z,11.18
2024-04-18T16:59:31.813Z,11.10
2024-04-18T17:01:58.499Z,10.96
2024-04-18T17:04:25.583Z,10.88
2024-04-18T17:06:52.408Z,10.79
2024-04-18T17:09:19.327Z,10.89
2024-04-18T17:11:47.009Z,10.64
2024-04-18T17:14:16.248Z,10.53
2024-04-18T17:16:42.840Z,10.61
2024-04-18T17:19:09.537Z,10.34
2024-04-18T17:21:36.790Z,10.35
2024-04-18T17:24:03.922Z,10.34
2024-04-18T17:26:30.781Z,10.25
2024-04-18T17:28:57.708Z,9.79
2024-04-18T17:31:24.613Z,9.76
2024-04-18T17:33:51.258Z,9.60
2024-04-18T17:36:18.464Z,9.58
2024-04-18T17:38:47.265Z,9.53
2024-04-18T17:41:14.091Z,9.42
2024-04-18T17:43:41.196Z,9.31
2024-04-18T17:46:08.081Z,9.26
2024-04-18T17:48:35.049Z,9.21
2024-04-18T17:51:01.688Z,9.26
2024-04-18T17:53:28.914Z,9.20
2024-04-18T17:55:55.736Z,9.03
2024-04-18T17:58:22.723Z,9.00
2024-04-18T18:00:49.840Z,8.87
2024-04-18T18:03:17.391Z,8.77
2024-04-18T18:05:45.337Z,8.71
2024-04-18T18:08:12.022Z,8.77
2024-04-18T18:10:38.732Z,8.68
2024-04-18T18:13:05.399Z,8.67
2024-04-18T18:15:32.080Z,8.46
2024-04-18T18:17:59.560Z,8.30
2024-04-18T18:20:26.835Z,8.32
2024-04-18T18:22:53.651Z,8.08
2024-04-18T18:25:20.283Z,8.31
2024-04-18T18:27:46.935Z,8.27
2024-04-18T18:30:14.888Z,8.34
2024-04-18T18:32:42.238Z,8.21
2024-04-18T18:35:09.702Z,8.27
2024-04-18T18:37:36.625Z,7.88
2024-04-18T18:40:05.469Z,7.95
2024-04-18T18:42:32.198Z,8.04
2024-04-18T18:44:58.900Z,7.77
2024-04-18T18:47:25.716Z,7.84
2024-04-18T18:49:52.496Z,7.93
2024-04-18T18:52:20.483Z,7.60
2024-04-18T18:54:47.700Z,7.69
2024-04-18T18:57:14.577Z,7.70
2024-04-18T18:59:45.428Z,7.43
2024-04-18T19:02:12.728Z,7.45
2024-04-18T19:04:40.564Z,7.64
2024-04-18T19:07:07.250Z,7.21
2024-04-18T19:09:34.023Z,7.24
2024-04-18T19:12:00.818Z,7.17
2024-04-18T19:14:28.270Z,6.98
2024-04-18T19:16:55.402Z,7.01
2024-04-18T19:19:25.368Z,7.10
2024-04-18T19:21:52.727Z,7.05
2024-04-18T19:24:19.677Z,6.97
2024-04-18T19:26:47.764Z,6.99
2024-04-18T19:29:20.678Z,6.85
2024-04-18T19:31:53.855Z,7.25
2024-04-18T19:34:20.560Z,6.98
2024-04-18T19:36:47.888Z,6.92
2024-04-18T19:39:15.764Z,6.75
2024-04-18T19:41:42.601Z,6.75
2024-04-18T19:44:09.535Z,6.74
2024-04-18T19:46:36.243Z,6.66
2024-04-18T19:49:03.799Z,6.85
2024-04-18T19:51:31.467Z,6.77
2024-04-18T19:53:58.166Z,6.62
2024-04-18T19:56:24.883Z,6.58
2024-04-18T19:58:51.486Z,6.71
2024-04-18T20:01:18.196Z,6.45
2024-04-18T20:03:45.004Z,6.60
2024-04-18T20:06:11.712Z,6.45
2024-04-18T20:08:38.446Z,6.32
2024-04-18T20:11:05.110Z,6.26
2024-04-18T20:13:31.753Z,6.20
2024-04-18T20:15:58.375Z,6.37
2024-04-18T20:18:25.097Z,6.13
2024-04-18T20:20:51.769Z,6.32
2024-04-18T20:23:18.914Z,6.16
2024-04-18T20:25:45.633Z,6.15
2024-04-18T20:28:13.135Z,6.02
2024-04-18T20:30:39.895Z,6.01
2024-04-18T20:33:06.927Z,6.17
2024-04-18T20:35:33.716Z,6.02
2024-04-18T20:38:00.411Z,6.42
2024-04-18T20:40:27.073Z,6.14
2024-04-18T20:42:53.839Z,6.39
2024-04-18T20:45:20.457Z,6.32
2024-04-18T20:47:47.287Z,6.18
2024-04-18T20:50:14.133Z,6.24
2024-04-18T20:52:40.806Z,6.22
2024-04-18T20:55:07.920Z,5.88
2024-04-18T20:57:34.727Z,5.97
2024-04-18T21:00:01.435Z,6.02
2024-04-18T21:02:28.352Z,5.78
2024-04-18T21:04:55.173Z,6.00
2024-04-18T21:07:23.461Z,5.90
2024-04-18T21:09:50.064Z,5.56
2024-04-18T21:12:17.328Z,5.60
2024-04-18T21:14:44.036Z,5.34
2024-04-18T21:17:10.698Z,5.37
2024-04-18T21:19:37.401Z,5.36
2024-04-18T21:22:05.452Z,5.79
2024-04-18T21:24:32.260Z,5.59
2024-04-18T21:26:58.931Z,5.42
2024-04-18T21:29:25.551Z,5.71
2024-04-18T21:31:52.137Z,5.61
2024-04-18T21:34:18.777Z,5.59
2024-04-18T21:36:45.554Z,5.50
2024-04-18T21:39:13.182Z,5.52
2024-04-18T21:41:41.260Z,5.51
2024-04-18T21:44:07.880Z,5.90
2024-04-18T21:46:34.481Z,5.75
2024-04-18T21:49:01.260Z,5.74
2024-04-18T21:51:28.594Z,5.86
2024-04-18T21:53:55.426Z,5.74
2024-04-18T21:56:22.062Z,5.64
2024-04-18T21:58:53.226Z,5.87
2024-04-18T22:01:19.916Z,5.73
2024-04-18T22:03:46.620Z,5.63
2024-04-18T22:06:13.278Z,5.54
2024-04-18T22:08:39.869Z,5.87
2024-04-18T22:11:06.545Z,5.87
2024-04-18T22:13:33.298Z,5.92
2024-04-18T22:15:59.913Z,5.86
2024-04-18T22:18:26.875Z,5.78
2024-04-18T22:20:56.310Z,5.79
2024-04-18T22:23:23.325Z,5.78
2024-04-18T22:25:50.031Z,5.91
2024-04-18T22:28:16.767Z,5.82
2024-04-18T22:30:44.743Z,5.87
2024-04-18T22:33:11.568Z,5.97
2024-04-18T22:35:39.889Z,6.11
2024-04-18T22:38:06.547Z,5.99
2024-04-18T22:40:33.186Z,6.08
2024-04-18T22:42:59.996Z,6.12
2024-04-18T22:45:26.864Z,6.16
2024-04-18T22:47:53.560Z,6.00
2024-04-18T22:50:20.204Z,6.23
2024-04-18T22:52:46.830Z,6.15
2024-04-18T22:55:14.502Z,6.29
2024-04-18T22:57:41.290Z,6.25
2024-04-18T23:00:09.790Z,6.17
2024-04-18T23:02:36.507Z,6.25
2024-04-18T23:05:04.400Z,6.28
2024-04-18T23:07:30.977Z,6.36
2024-04-18T23:09:58.780Z,6.71
2024-04-18T23:12:25.396Z,6.29
2024-04-18T23:14:52.029Z,6.51
2024-04-18T23:17:18.697Z,6.42
2024-04-18T23:19:45.388Z,6.37
2024-04-18T23:22:12.019Z,6.36
2024-04-18T23:24:39.637Z,6.41
2024-04-18T23:27:06.303Z,6.30
2024-04-18T23:29:33.041Z,6.27
2024-04-18T23:31:59.979Z,6.40
2024-04-18T23:34:26.937Z,6.41
2024-04-18T23:36:53.574Z,6.53
2024-04-18T23:39:20.249Z,6.41
2024-04-18T23:41:46.878Z,6.62
2024-04-18T23:44:13.492Z,6.45
2024-04-18T23:46:40.246Z,6.36
2024-04-18T23:49:06.932Z,6.24
2024-04-18T23:51:33.636Z,6.20
2024-04-18T23:54:00.246Z,6.13
2024-04-18T23:56:26.887Z,6.30
2024-04-18T23:58:53.978Z,6.30
